<?xml version="1.0" encoding="UTF-8" standalone="no" ?>
<gpx xmlns="http://www.topografix.com/GPX/1/1" xmlns:xsi="http://www.w3.org/2001/XMLSchema-instance" xsi:schemaLocation="http://www.topografix.com/GPX/1/1 http://www.topografix.com/GPX/1/1/gpx.xsd" version="1.1" creator="VisuGPX - https://www.visugpx.com">
  <metadata>
    <name>VCBN-2025-vendredi-trace3-v1</name>
  </metadata>
  <trk>
    <name><![CDATA[VCBN-2025-vendredi-trace3-v1]]></name>
    <trkseg>
      <trkpt lat="48.34687" lon="-0.24398">
        <ele>177</ele>
        <time>2019-08-23T15:11:32Z</time>
      </trkpt>
      <trkpt lat="48.34728" lon="-0.24516">
        <ele>181</ele>
        <time>2019-08-23T15:11:11Z</time>
      </trkpt>
      <trkpt lat="48.34801" lon="-0.24598">
        <ele>184</ele>
        <time>2019-08-23T15:10:50Z</time>
      </trkpt>
      <trkpt lat="48.34803" lon="-0.24729">
        <ele>183</ele>
        <time>2019-08-23T15:10:29Z</time>
      </trkpt>
      <trkpt lat="48.34831" lon="-0.24896">
        <ele>184</ele>
        <time>2019-08-23T15:10:03Z</time>
      </trkpt>
      <trkpt lat="48.34823" lon="-0.24965">
        <ele>183</ele>
        <time>2019-08-23T15:09:52Z</time>
      </trkpt>
      <trkpt lat="48.34826" lon="-0.25038">
        <ele>182</ele>
        <time>2019-08-23T15:09:40Z</time>
      </trkpt>
      <trkpt lat="48.34912" lon="-0.25725">
        <ele>191</ele>
        <time>2019-08-23T15:07:52Z</time>
      </trkpt>
      <trkpt lat="48.3502" lon="-0.2574">
        <ele>202</ele>
        <time>2019-08-23T15:07:27Z</time>
      </trkpt>
      <trkpt lat="48.35099" lon="-0.25536">
        <ele>203</ele>
        <time>2019-08-23T15:06:50Z</time>
      </trkpt>
      <trkpt lat="48.35107" lon="-0.25529">
        <ele>204</ele>
        <time>2019-08-23T15:06:48Z</time>
      </trkpt>
      <trkpt lat="48.3513" lon="-0.25549">
        <ele>207</ele>
        <time>2019-08-23T15:06:42Z</time>
      </trkpt>
      <trkpt lat="48.35171" lon="-0.25564">
        <ele>211</ele>
        <time>2019-08-23T15:06:32Z</time>
      </trkpt>
      <trkpt lat="48.35197" lon="-0.25536">
        <ele>213</ele>
        <time>2019-08-23T15:06:24Z</time>
      </trkpt>
      <trkpt lat="48.35207" lon="-0.25471">
        <ele>213</ele>
        <time>2019-08-23T15:06:14Z</time>
      </trkpt>
      <trkpt lat="48.35234" lon="-0.25461">
        <ele>216</ele>
        <time>2019-08-23T15:06:07Z</time>
      </trkpt>
      <trkpt lat="48.3531" lon="-0.25497">
        <ele>224</ele>
        <time>2019-08-23T15:05:49Z</time>
      </trkpt>
      <trkpt lat="48.35345" lon="-0.25523">
        <ele>226</ele>
        <time>2019-08-23T15:05:40Z</time>
      </trkpt>
      <trkpt lat="48.35338" lon="-0.25622">
        <ele>227</ele>
        <time>2019-08-23T15:05:24Z</time>
      </trkpt>
      <trkpt lat="48.35323" lon="-0.25714">
        <ele>229</ele>
        <time>2019-08-23T15:05:10Z</time>
      </trkpt>
      <trkpt lat="48.35293" lon="-0.25758">
        <ele>232</ele>
        <time>2019-08-23T15:05:00Z</time>
      </trkpt>
      <trkpt lat="48.35231" lon="-0.25803">
        <ele>237</ele>
        <time>2019-08-23T15:04:44Z</time>
      </trkpt>
      <trkpt lat="48.35201" lon="-0.25792">
        <ele>234</ele>
        <time>2019-08-23T15:04:37Z</time>
      </trkpt>
      <trkpt lat="48.35165" lon="-0.25817">
        <ele>233</ele>
        <time>2019-08-23T15:04:27Z</time>
      </trkpt>
      <trkpt lat="48.35149" lon="-0.25847">
        <ele>231</ele>
        <time>2019-08-23T15:04:21Z</time>
      </trkpt>
      <trkpt lat="48.35137" lon="-0.25882">
        <ele>229</ele>
        <time>2019-08-23T15:04:15Z</time>
      </trkpt>
      <trkpt lat="48.35121" lon="-0.25833">
        <ele>226</ele>
        <time>2019-08-23T15:04:07Z</time>
      </trkpt>
      <trkpt lat="48.35111" lon="-0.25849">
        <ele>224</ele>
        <time>2019-08-23T15:04:03Z</time>
      </trkpt>
      <trkpt lat="48.3509" lon="-0.25905">
        <ele>221</ele>
        <time>2019-08-23T15:03:53Z</time>
      </trkpt>
      <trkpt lat="48.35104" lon="-0.26021">
        <ele>223</ele>
        <time>2019-08-23T15:03:35Z</time>
      </trkpt>
      <trkpt lat="48.35124" lon="-0.26055">
        <ele>225</ele>
        <time>2019-08-23T15:03:28Z</time>
      </trkpt>
      <trkpt lat="48.35159" lon="-0.26087">
        <ele>230</ele>
        <time>2019-08-23T15:03:18Z</time>
      </trkpt>
      <trkpt lat="48.35188" lon="-0.26209">
        <ele>228</ele>
        <time>2019-08-23T15:02:58Z</time>
      </trkpt>
      <trkpt lat="48.35176" lon="-0.26364">
        <ele>227</ele>
        <time>2019-08-23T15:02:34Z</time>
      </trkpt>
      <trkpt lat="48.35111" lon="-0.26545">
        <ele>224</ele>
        <time>2019-08-23T15:02:02Z</time>
      </trkpt>
      <trkpt lat="48.35051" lon="-0.26667">
        <ele>224</ele>
        <time>2019-08-23T15:01:39Z</time>
      </trkpt>
      <trkpt lat="48.35015" lon="-0.26747">
        <ele>223</ele>
        <time>2019-08-23T15:01:24Z</time>
      </trkpt>
      <trkpt lat="48.34931" lon="-0.26786">
        <ele>218</ele>
        <time>2019-08-23T15:01:03Z</time>
      </trkpt>
      <trkpt lat="48.34859" lon="-0.26844">
        <ele>210</ele>
        <time>2019-08-23T15:00:44Z</time>
      </trkpt>
      <trkpt lat="48.35375" lon="-0.27537">
        <ele>214</ele>
        <time>2019-08-23T14:58:02Z</time>
      </trkpt>
      <trkpt lat="48.35387" lon="-0.27483">
        <ele>215</ele>
        <time>2019-08-23T14:57:54Z</time>
      </trkpt>
      <trkpt lat="48.35437" lon="-0.27299">
        <ele>217</ele>
        <time>2019-08-23T14:57:23Z</time>
      </trkpt>
      <trkpt lat="48.35509" lon="-0.27115">
        <ele>219</ele>
        <time>2019-08-23T14:56:50Z</time>
      </trkpt>
      <trkpt lat="48.35531" lon="-0.27096">
        <ele>220</ele>
        <time>2019-08-23T14:56:44Z</time>
      </trkpt>
      <trkpt lat="48.35644" lon="-0.26947">
        <ele>225</ele>
        <time>2019-08-23T14:56:09Z</time>
      </trkpt>
      <trkpt lat="48.35735" lon="-0.26962">
        <ele>225</ele>
        <time>2019-08-23T14:55:47Z</time>
      </trkpt>
      <trkpt lat="48.35766" lon="-0.26974">
        <ele>226</ele>
        <time>2019-08-23T14:55:40Z</time>
      </trkpt>
      <trkpt lat="48.35825" lon="-0.26981">
        <ele>226</ele>
        <time>2019-08-23T14:55:26Z</time>
      </trkpt>
      <trkpt lat="48.35863" lon="-0.26988">
        <ele>225</ele>
        <time>2019-08-23T14:55:17Z</time>
      </trkpt>
      <trkpt lat="48.35896" lon="-0.26997">
        <ele>224</ele>
        <time>2019-08-23T14:55:09Z</time>
      </trkpt>
      <trkpt lat="48.35919" lon="-0.26981">
        <ele>222</ele>
        <time>2019-08-23T14:55:03Z</time>
      </trkpt>
      <trkpt lat="48.35952" lon="-0.26944">
        <ele>219</ele>
        <time>2019-08-23T14:54:54Z</time>
      </trkpt>
      <trkpt lat="48.35984" lon="-0.26934">
        <ele>216</ele>
        <time>2019-08-23T14:54:46Z</time>
      </trkpt>
      <trkpt lat="48.36023" lon="-0.26929">
        <ele>214</ele>
        <time>2019-08-23T14:54:37Z</time>
      </trkpt>
      <trkpt lat="48.36062" lon="-0.2693">
        <ele>213</ele>
        <time>2019-08-23T14:54:28Z</time>
      </trkpt>
      <trkpt lat="48.36083" lon="-0.26955">
        <ele>213</ele>
        <time>2019-08-23T14:54:22Z</time>
      </trkpt>
      <trkpt lat="48.36098" lon="-0.2698">
        <ele>212</ele>
        <time>2019-08-23T14:54:16Z</time>
      </trkpt>
      <trkpt lat="48.36122" lon="-0.26997">
        <ele>211</ele>
        <time>2019-08-23T14:54:10Z</time>
      </trkpt>
      <trkpt lat="48.36155" lon="-0.27012">
        <ele>210</ele>
        <time>2019-08-23T14:54:02Z</time>
      </trkpt>
      <trkpt lat="48.36198" lon="-0.2702">
        <ele>211</ele>
        <time>2019-08-23T14:53:52Z</time>
      </trkpt>
      <trkpt lat="48.36267" lon="-0.27025">
        <ele>212</ele>
        <time>2019-08-23T14:53:36Z</time>
      </trkpt>
      <trkpt lat="48.36304" lon="-0.27024">
        <ele>213</ele>
        <time>2019-08-23T14:53:27Z</time>
      </trkpt>
      <trkpt lat="48.3635" lon="-0.26972">
        <ele>214</ele>
        <time>2019-08-23T14:53:14Z</time>
      </trkpt>
      <trkpt lat="48.36411" lon="-0.26925">
        <ele>214</ele>
        <time>2019-08-23T14:52:58Z</time>
      </trkpt>
      <trkpt lat="48.36434" lon="-0.26914">
        <ele>214</ele>
        <time>2019-08-23T14:52:52Z</time>
      </trkpt>
      <trkpt lat="48.36432" lon="-0.26892">
        <ele>214</ele>
        <time>2019-08-23T14:52:49Z</time>
      </trkpt>
      <trkpt lat="48.36408" lon="-0.26802">
        <ele>214</ele>
        <time>2019-08-23T14:52:34Z</time>
      </trkpt>
      <trkpt lat="48.36406" lon="-0.26759">
        <ele>214</ele>
        <time>2019-08-23T14:52:27Z</time>
      </trkpt>
      <trkpt lat="48.36439" lon="-0.26739">
        <ele>214</ele>
        <time>2019-08-23T14:52:19Z</time>
      </trkpt>
      <trkpt lat="48.3647" lon="-0.26697">
        <ele>214</ele>
        <time>2019-08-23T14:52:09Z</time>
      </trkpt>
      <trkpt lat="48.36519" lon="-0.2666">
        <ele>215</ele>
        <time>2019-08-23T14:51:56Z</time>
      </trkpt>
      <trkpt lat="48.36542" lon="-0.26628">
        <ele>216</ele>
        <time>2019-08-23T14:51:49Z</time>
      </trkpt>
      <trkpt lat="48.36552" lon="-0.26591">
        <ele>217</ele>
        <time>2019-08-23T14:51:43Z</time>
      </trkpt>
      <trkpt lat="48.36574" lon="-0.26553">
        <ele>217</ele>
        <time>2019-08-23T14:51:35Z</time>
      </trkpt>
      <trkpt lat="48.36657" lon="-0.26484">
        <ele>220</ele>
        <time>2019-08-23T14:51:13Z</time>
      </trkpt>
      <trkpt lat="48.36706" lon="-0.26458">
        <ele>221</ele>
        <time>2019-08-23T14:51:00Z</time>
      </trkpt>
      <trkpt lat="48.3675" lon="-0.26364">
        <ele>221</ele>
        <time>2019-08-23T14:50:43Z</time>
      </trkpt>
      <trkpt lat="48.36815" lon="-0.26242">
        <ele>221</ele>
        <time>2019-08-23T14:50:18Z</time>
      </trkpt>
      <trkpt lat="48.36874" lon="-0.26244">
        <ele>222</ele>
        <time>2019-08-23T14:50:05Z</time>
      </trkpt>
      <trkpt lat="48.36932" lon="-0.26242">
        <ele>222</ele>
        <time>2019-08-23T14:49:51Z</time>
      </trkpt>
      <trkpt lat="48.36978" lon="-0.26237">
        <ele>222</ele>
        <time>2019-08-23T14:49:40Z</time>
      </trkpt>
      <trkpt lat="48.37029" lon="-0.26209">
        <ele>222</ele>
        <time>2019-08-23T14:49:28Z</time>
      </trkpt>
      <trkpt lat="48.37056" lon="-0.26201">
        <ele>222</ele>
        <time>2019-08-23T14:49:21Z</time>
      </trkpt>
      <trkpt lat="48.37092" lon="-0.26216">
        <ele>222</ele>
        <time>2019-08-23T14:49:12Z</time>
      </trkpt>
      <trkpt lat="48.37142" lon="-0.26222">
        <ele>223</ele>
        <time>2019-08-23T14:49:01Z</time>
      </trkpt>
      <trkpt lat="48.37216" lon="-0.26212">
        <ele>225</ele>
        <time>2019-08-23T14:48:43Z</time>
      </trkpt>
      <trkpt lat="48.37247" lon="-0.26218">
        <ele>227</ele>
        <time>2019-08-23T14:48:36Z</time>
      </trkpt>
      <trkpt lat="48.37283" lon="-0.26257">
        <ele>228</ele>
        <time>2019-08-23T14:48:26Z</time>
      </trkpt>
      <trkpt lat="48.37336" lon="-0.2628">
        <ele>232</ele>
        <time>2019-08-23T14:48:13Z</time>
      </trkpt>
      <trkpt lat="48.37387" lon="-0.2631">
        <ele>234</ele>
        <time>2019-08-23T14:48:00Z</time>
      </trkpt>
      <trkpt lat="48.37464" lon="-0.26343">
        <ele>240</ele>
        <time>2019-08-23T14:47:41Z</time>
      </trkpt>
      <trkpt lat="48.37569" lon="-0.26366">
        <ele>246</ele>
        <time>2019-08-23T14:47:17Z</time>
      </trkpt>
      <trkpt lat="48.37622" lon="-0.26388">
        <ele>250</ele>
        <time>2019-08-23T14:47:04Z</time>
      </trkpt>
      <trkpt lat="48.37726" lon="-0.26379">
        <ele>257</ele>
        <time>2019-08-23T14:46:39Z</time>
      </trkpt>
      <trkpt lat="48.3789" lon="-0.26334">
        <ele>268</ele>
        <time>2019-08-23T14:46:00Z</time>
      </trkpt>
      <trkpt lat="48.37964" lon="-0.26308">
        <ele>275</ele>
        <time>2019-08-23T14:45:43Z</time>
      </trkpt>
      <trkpt lat="48.38002" lon="-0.26308">
        <ele>278</ele>
        <time>2019-08-23T14:45:34Z</time>
      </trkpt>
      <trkpt lat="48.38016" lon="-0.26299">
        <ele>279</ele>
        <time>2019-08-23T14:45:30Z</time>
      </trkpt>
      <trkpt lat="48.38074" lon="-0.26358">
        <ele>287</ele>
        <time>2019-08-23T14:45:14Z</time>
      </trkpt>
      <trkpt lat="48.38124" lon="-0.26402">
        <ele>292</ele>
        <time>2019-08-23T14:45:00Z</time>
      </trkpt>
      <trkpt lat="48.38134" lon="-0.26399">
        <ele>293</ele>
        <time>2019-08-23T14:44:58Z</time>
      </trkpt>
      <trkpt lat="48.38188" lon="-0.26493">
        <ele>301</ele>
        <time>2019-08-23T14:44:39Z</time>
      </trkpt>
      <trkpt lat="48.38285" lon="-0.26641">
        <ele>314</ele>
        <time>2019-08-23T14:44:07Z</time>
      </trkpt>
      <trkpt lat="48.38307" lon="-0.26655">
        <ele>316</ele>
        <time>2019-08-23T14:44:01Z</time>
      </trkpt>
      <trkpt lat="48.3834" lon="-0.26671">
        <ele>320</ele>
        <time>2019-08-23T14:43:53Z</time>
      </trkpt>
      <trkpt lat="48.38365" lon="-0.26666">
        <ele>321</ele>
        <time>2019-08-23T14:43:47Z</time>
      </trkpt>
      <trkpt lat="48.38398" lon="-0.26651">
        <ele>322</ele>
        <time>2019-08-23T14:43:39Z</time>
      </trkpt>
      <trkpt lat="48.38432" lon="-0.26624">
        <ele>323</ele>
        <time>2019-08-23T14:43:30Z</time>
      </trkpt>
      <trkpt lat="48.38423" lon="-0.26678">
        <ele>326</ele>
        <time>2019-08-23T14:43:21Z</time>
      </trkpt>
      <trkpt lat="48.3841" lon="-0.26705">
        <ele>327</ele>
        <time>2019-08-23T14:43:16Z</time>
      </trkpt>
      <trkpt lat="48.38382" lon="-0.26752">
        <ele>329</ele>
        <time>2019-08-23T14:43:06Z</time>
      </trkpt>
      <trkpt lat="48.38352" lon="-0.26772">
        <ele>329</ele>
        <time>2019-08-23T14:42:59Z</time>
      </trkpt>
      <trkpt lat="48.38291" lon="-0.26798">
        <ele>328</ele>
        <time>2019-08-23T14:42:44Z</time>
      </trkpt>
      <trkpt lat="48.38281" lon="-0.26817">
        <ele>329</ele>
        <time>2019-08-23T14:42:40Z</time>
      </trkpt>
      <trkpt lat="48.38259" lon="-0.26832">
        <ele>328</ele>
        <time>2019-08-23T14:42:34Z</time>
      </trkpt>
      <trkpt lat="48.38223" lon="-0.26878">
        <ele>322</ele>
        <time>2019-08-23T14:42:23Z</time>
      </trkpt>
      <trkpt lat="48.38198" lon="-0.26925">
        <ele>317</ele>
        <time>2019-08-23T14:42:14Z</time>
      </trkpt>
      <trkpt lat="48.38178" lon="-0.26969">
        <ele>314</ele>
        <time>2019-08-23T14:42:06Z</time>
      </trkpt>
      <trkpt lat="48.38157" lon="-0.27032">
        <ele>313</ele>
        <time>2019-08-23T14:41:55Z</time>
      </trkpt>
      <trkpt lat="48.38137" lon="-0.27072">
        <ele>311</ele>
        <time>2019-08-23T14:41:47Z</time>
      </trkpt>
      <trkpt lat="48.38151" lon="-0.27146">
        <ele>314</ele>
        <time>2019-08-23T14:41:35Z</time>
      </trkpt>
      <trkpt lat="48.3816" lon="-0.27257">
        <ele>317</ele>
        <time>2019-08-23T14:41:18Z</time>
      </trkpt>
      <trkpt lat="48.3817" lon="-0.27305">
        <ele>320</ele>
        <time>2019-08-23T14:41:10Z</time>
      </trkpt>
      <trkpt lat="48.38192" lon="-0.27336">
        <ele>321</ele>
        <time>2019-08-23T14:41:03Z</time>
      </trkpt>
      <trkpt lat="48.38238" lon="-0.27358">
        <ele>323</ele>
        <time>2019-08-23T14:40:52Z</time>
      </trkpt>
      <trkpt lat="48.38259" lon="-0.27415">
        <ele>322</ele>
        <time>2019-08-23T14:40:42Z</time>
      </trkpt>
      <trkpt lat="48.38263" lon="-0.27474">
        <ele>321</ele>
        <time>2019-08-23T14:40:32Z</time>
      </trkpt>
      <trkpt lat="48.38262" lon="-0.2753">
        <ele>320</ele>
        <time>2019-08-23T14:40:24Z</time>
      </trkpt>
      <trkpt lat="48.38234" lon="-0.27664">
        <ele>318</ele>
        <time>2019-08-23T14:40:02Z</time>
      </trkpt>
      <trkpt lat="48.38218" lon="-0.27721">
        <ele>316</ele>
        <time>2019-08-23T14:39:52Z</time>
      </trkpt>
      <trkpt lat="48.38119" lon="-0.27734">
        <ele>314</ele>
        <time>2019-08-23T14:39:29Z</time>
      </trkpt>
      <trkpt lat="48.37949" lon="-0.27772">
        <ele>296</ele>
        <time>2019-08-23T14:38:49Z</time>
      </trkpt>
      <trkpt lat="48.37931" lon="-0.27787">
        <ele>294</ele>
        <time>2019-08-23T14:38:44Z</time>
      </trkpt>
      <trkpt lat="48.37919" lon="-0.27818">
        <ele>292</ele>
        <time>2019-08-23T14:38:39Z</time>
      </trkpt>
      <trkpt lat="48.37903" lon="-0.27883">
        <ele>291</ele>
        <time>2019-08-23T14:38:28Z</time>
      </trkpt>
      <trkpt lat="48.37892" lon="-0.27909">
        <ele>291</ele>
        <time>2019-08-23T14:38:23Z</time>
      </trkpt>
      <trkpt lat="48.37872" lon="-0.27911">
        <ele>288</ele>
        <time>2019-08-23T14:38:18Z</time>
      </trkpt>
      <trkpt lat="48.37844" lon="-0.27907">
        <ele>284</ele>
        <time>2019-08-23T14:38:12Z</time>
      </trkpt>
      <trkpt lat="48.37819" lon="-0.27891">
        <ele>281</ele>
        <time>2019-08-23T14:38:06Z</time>
      </trkpt>
      <trkpt lat="48.37807" lon="-0.27877">
        <ele>279</ele>
        <time>2019-08-23T14:38:02Z</time>
      </trkpt>
      <trkpt lat="48.37791" lon="-0.27901">
        <ele>278</ele>
        <time>2019-08-23T14:37:57Z</time>
      </trkpt>
      <trkpt lat="48.37779" lon="-0.27929">
        <ele>277</ele>
        <time>2019-08-23T14:37:52Z</time>
      </trkpt>
      <trkpt lat="48.3777" lon="-0.27963">
        <ele>277</ele>
        <time>2019-08-23T14:37:46Z</time>
      </trkpt>
      <trkpt lat="48.37764" lon="-0.28001">
        <ele>277</ele>
        <time>2019-08-23T14:37:40Z</time>
      </trkpt>
      <trkpt lat="48.37763" lon="-0.28056">
        <ele>277</ele>
        <time>2019-08-23T14:37:31Z</time>
      </trkpt>
      <trkpt lat="48.37867" lon="-0.28066">
        <ele>289</ele>
        <time>2019-08-23T14:37:07Z</time>
      </trkpt>
      <trkpt lat="48.379" lon="-0.28046">
        <ele>293</ele>
        <time>2019-08-23T14:36:59Z</time>
      </trkpt>
      <trkpt lat="48.37953" lon="-0.28027">
        <ele>299</ele>
        <time>2019-08-23T14:36:46Z</time>
      </trkpt>
      <trkpt lat="48.38034" lon="-0.28044">
        <ele>306</ele>
        <time>2019-08-23T14:36:27Z</time>
      </trkpt>
      <trkpt lat="48.38115" lon="-0.28089">
        <ele>309</ele>
        <time>2019-08-23T14:36:07Z</time>
      </trkpt>
      <trkpt lat="48.38149" lon="-0.28089">
        <ele>309</ele>
        <time>2019-08-23T14:35:59Z</time>
      </trkpt>
      <trkpt lat="48.38202" lon="-0.28068">
        <ele>310</ele>
        <time>2019-08-23T14:35:46Z</time>
      </trkpt>
      <trkpt lat="48.38273" lon="-0.2807">
        <ele>312</ele>
        <time>2019-08-23T14:35:29Z</time>
      </trkpt>
      <trkpt lat="48.38353" lon="-0.28149">
        <ele>318</ele>
        <time>2019-08-23T14:35:07Z</time>
      </trkpt>
      <trkpt lat="48.38413" lon="-0.28164">
        <ele>322</ele>
        <time>2019-08-23T14:34:53Z</time>
      </trkpt>
      <trkpt lat="48.38503" lon="-0.28203">
        <ele>324</ele>
        <time>2019-08-23T14:34:31Z</time>
      </trkpt>
      <trkpt lat="48.38518" lon="-0.28134">
        <ele>324</ele>
        <time>2019-08-23T14:34:20Z</time>
      </trkpt>
      <trkpt lat="48.38533" lon="-0.27982">
        <ele>328</ele>
        <time>2019-08-23T14:33:56Z</time>
      </trkpt>
      <trkpt lat="48.3855" lon="-0.27894">
        <ele>330</ele>
        <time>2019-08-23T14:33:42Z</time>
      </trkpt>
      <trkpt lat="48.38594" lon="-0.27724">
        <ele>334</ele>
        <time>2019-08-23T14:33:13Z</time>
      </trkpt>
      <trkpt lat="48.38647" lon="-0.27463">
        <ele>343</ele>
        <time>2019-08-23T14:32:31Z</time>
      </trkpt>
      <trkpt lat="48.387" lon="-0.27306">
        <ele>346</ele>
        <time>2019-08-23T14:32:04Z</time>
      </trkpt>
      <trkpt lat="48.38735" lon="-0.27179">
        <ele>348</ele>
        <time>2019-08-23T14:31:42Z</time>
      </trkpt>
      <trkpt lat="48.38707" lon="-0.27154">
        <ele>347</ele>
        <time>2019-08-23T14:31:35Z</time>
      </trkpt>
      <trkpt lat="48.38741" lon="-0.27021">
        <ele>348</ele>
        <time>2019-08-23T14:31:13Z</time>
      </trkpt>
      <trkpt lat="48.38769" lon="-0.26857">
        <ele>352</ele>
        <time>2019-08-23T14:30:46Z</time>
      </trkpt>
      <trkpt lat="48.38776" lon="-0.26754">
        <ele>355</ele>
        <time>2019-08-23T14:30:30Z</time>
      </trkpt>
      <trkpt lat="48.38786" lon="-0.26688">
        <ele>359</ele>
        <time>2019-08-23T14:30:20Z</time>
      </trkpt>
      <trkpt lat="48.38794" lon="-0.26576">
        <ele>362</ele>
        <time>2019-08-23T14:30:02Z</time>
      </trkpt>
      <trkpt lat="48.38829" lon="-0.26437">
        <ele>362</ele>
        <time>2019-08-23T14:29:39Z</time>
      </trkpt>
      <trkpt lat="48.38902" lon="-0.26231">
        <ele>354</ele>
        <time>2019-08-23T14:29:03Z</time>
      </trkpt>
      <trkpt lat="48.38922" lon="-0.26147">
        <ele>355</ele>
        <time>2019-08-23T14:28:49Z</time>
      </trkpt>
      <trkpt lat="48.38929" lon="-0.26076">
        <ele>354</ele>
        <time>2019-08-23T14:28:38Z</time>
      </trkpt>
      <trkpt lat="48.38947" lon="-0.25973">
        <ele>352</ele>
        <time>2019-08-23T14:28:22Z</time>
      </trkpt>
      <trkpt lat="48.3898" lon="-0.25836">
        <ele>349</ele>
        <time>2019-08-23T14:27:59Z</time>
      </trkpt>
      <trkpt lat="48.38973" lon="-0.25813">
        <ele>350</ele>
        <time>2019-08-23T14:27:55Z</time>
      </trkpt>
      <trkpt lat="48.39063" lon="-0.25761">
        <ele>349</ele>
        <time>2019-08-23T14:27:33Z</time>
      </trkpt>
      <trkpt lat="48.39128" lon="-0.25701">
        <ele>349</ele>
        <time>2019-08-23T14:27:15Z</time>
      </trkpt>
      <trkpt lat="48.39399" lon="-0.25439">
        <ele>343</ele>
        <time>2019-08-23T14:26:00Z</time>
      </trkpt>
      <trkpt lat="48.3947" lon="-0.25343">
        <ele>340</ele>
        <time>2019-08-23T14:25:37Z</time>
      </trkpt>
      <trkpt lat="48.39532" lon="-0.25244">
        <ele>339</ele>
        <time>2019-08-23T14:25:16Z</time>
      </trkpt>
      <trkpt lat="48.39643" lon="-0.25057">
        <ele>337</ele>
        <time>2019-08-23T14:24:37Z</time>
      </trkpt>
      <trkpt lat="48.39727" lon="-0.2513">
        <ele>333</ele>
        <time>2019-08-23T14:24:15Z</time>
      </trkpt>
      <trkpt lat="48.39754" lon="-0.25122">
        <ele>332</ele>
        <time>2019-08-23T14:24:08Z</time>
      </trkpt>
      <trkpt lat="48.39827" lon="-0.25081">
        <ele>329</ele>
        <time>2019-08-23T14:23:50Z</time>
      </trkpt>
      <trkpt lat="48.39874" lon="-0.25036">
        <ele>328</ele>
        <time>2019-08-23T14:23:37Z</time>
      </trkpt>
      <trkpt lat="48.40017" lon="-0.24937">
        <ele>314</ele>
        <time>2019-08-23T14:23:00Z</time>
      </trkpt>
      <trkpt lat="48.40016" lon="-0.24911">
        <ele>316</ele>
        <time>2019-08-23T14:22:56Z</time>
      </trkpt>
      <trkpt lat="48.40049" lon="-0.24873">
        <ele>311</ele>
        <time>2019-08-23T14:22:46Z</time>
      </trkpt>
      <trkpt lat="48.40094" lon="-0.2477">
        <ele>306</ele>
        <time>2019-08-23T14:22:27Z</time>
      </trkpt>
      <trkpt lat="48.40129" lon="-0.24733">
        <ele>302</ele>
        <time>2019-08-23T14:22:17Z</time>
      </trkpt>
      <trkpt lat="48.40248" lon="-0.24634">
        <ele>289</ele>
        <time>2019-08-23T14:21:46Z</time>
      </trkpt>
      <trkpt lat="48.40258" lon="-0.24559">
        <ele>295</ele>
        <time>2019-08-23T14:21:34Z</time>
      </trkpt>
      <trkpt lat="48.40278" lon="-0.24514">
        <ele>297</ele>
        <time>2019-08-23T14:21:25Z</time>
      </trkpt>
      <trkpt lat="48.40322" lon="-0.24392">
        <ele>300</ele>
        <time>2019-08-23T14:21:04Z</time>
      </trkpt>
      <trkpt lat="48.40352" lon="-0.24345">
        <ele>298</ele>
        <time>2019-08-23T14:20:54Z</time>
      </trkpt>
      <trkpt lat="48.40394" lon="-0.24338">
        <ele>290</ele>
        <time>2019-08-23T14:20:44Z</time>
      </trkpt>
      <trkpt lat="48.40414" lon="-0.2421">
        <ele>294</ele>
        <time>2019-08-23T14:20:23Z</time>
      </trkpt>
      <trkpt lat="48.40435" lon="-0.24107">
        <ele>292</ele>
        <time>2019-08-23T14:20:07Z</time>
      </trkpt>
      <trkpt lat="48.40492" lon="-0.23944">
        <ele>290</ele>
        <time>2019-08-23T14:19:38Z</time>
      </trkpt>
      <trkpt lat="48.40569" lon="-0.23697">
        <ele>288</ele>
        <time>2019-08-23T14:18:56Z</time>
      </trkpt>
      <trkpt lat="48.40643" lon="-0.23497">
        <ele>295</ele>
        <time>2019-08-23T14:18:20Z</time>
      </trkpt>
      <trkpt lat="48.40703" lon="-0.23388">
        <ele>293</ele>
        <time>2019-08-23T14:17:58Z</time>
      </trkpt>
      <trkpt lat="48.40701" lon="-0.23358">
        <ele>296</ele>
        <time>2019-08-23T14:17:54Z</time>
      </trkpt>
      <trkpt lat="48.40758" lon="-0.23246">
        <ele>298</ele>
        <time>2019-08-23T14:17:32Z</time>
      </trkpt>
      <trkpt lat="48.4084" lon="-0.23163">
        <ele>286</ele>
        <time>2019-08-23T14:17:09Z</time>
      </trkpt>
      <trkpt lat="48.4094" lon="-0.22986">
        <ele>284</ele>
        <time>2019-08-23T14:16:33Z</time>
      </trkpt>
      <trkpt lat="48.41043" lon="-0.22774">
        <ele>296</ele>
        <time>2019-08-23T14:15:52Z</time>
      </trkpt>
      <trkpt lat="48.41117" lon="-0.22665">
        <ele>298</ele>
        <time>2019-08-23T14:15:28Z</time>
      </trkpt>
      <trkpt lat="48.41143" lon="-0.22525">
        <ele>304</ele>
        <time>2019-08-23T14:15:05Z</time>
      </trkpt>
      <trkpt lat="48.41203" lon="-0.2239">
        <ele>308</ele>
        <time>2019-08-23T14:14:40Z</time>
      </trkpt>
      <trkpt lat="48.41262" lon="-0.22272">
        <ele>313</ele>
        <time>2019-08-23T14:14:17Z</time>
      </trkpt>
      <trkpt lat="48.41318" lon="-0.22173">
        <ele>313</ele>
        <time>2019-08-23T14:13:57Z</time>
      </trkpt>
      <trkpt lat="48.41371" lon="-0.22087">
        <ele>314</ele>
        <time>2019-08-23T14:13:39Z</time>
      </trkpt>
      <trkpt lat="48.41423" lon="-0.22128">
        <ele>306</ele>
        <time>2019-08-23T14:13:25Z</time>
      </trkpt>
      <trkpt lat="48.41469" lon="-0.22145">
        <ele>303</ele>
        <time>2019-08-23T14:13:14Z</time>
      </trkpt>
      <trkpt lat="48.41506" lon="-0.2219">
        <ele>300</ele>
        <time>2019-08-23T14:13:03Z</time>
      </trkpt>
      <trkpt lat="48.41797" lon="-0.21739">
        <ele>321</ele>
        <time>2019-08-23T14:11:26Z</time>
      </trkpt>
      <trkpt lat="48.41922" lon="-0.21775">
        <ele>318</ele>
        <time>2019-08-23T14:10:56Z</time>
      </trkpt>
      <trkpt lat="48.41932" lon="-0.21799">
        <ele>316</ele>
        <time>2019-08-23T14:10:51Z</time>
      </trkpt>
      <trkpt lat="48.41971" lon="-0.2181">
        <ele>316</ele>
        <time>2019-08-23T14:10:42Z</time>
      </trkpt>
      <trkpt lat="48.42012" lon="-0.21827">
        <ele>315</ele>
        <time>2019-08-23T14:10:32Z</time>
      </trkpt>
      <trkpt lat="48.42049" lon="-0.21854">
        <ele>315</ele>
        <time>2019-08-23T14:10:23Z</time>
      </trkpt>
      <trkpt lat="48.42138" lon="-0.21905">
        <ele>317</ele>
        <time>2019-08-23T14:10:00Z</time>
      </trkpt>
      <trkpt lat="48.42159" lon="-0.2191">
        <ele>318</ele>
        <time>2019-08-23T14:09:55Z</time>
      </trkpt>
      <trkpt lat="48.42213" lon="-0.21914">
        <ele>320</ele>
        <time>2019-08-23T14:09:43Z</time>
      </trkpt>
      <trkpt lat="48.42211" lon="-0.21879">
        <ele>321</ele>
        <time>2019-08-23T14:09:37Z</time>
      </trkpt>
      <trkpt lat="48.42194" lon="-0.21766">
        <ele>326</ele>
        <time>2019-08-23T14:09:19Z</time>
      </trkpt>
      <trkpt lat="48.42178" lon="-0.21731">
        <ele>327</ele>
        <time>2019-08-23T14:09:13Z</time>
      </trkpt>
      <trkpt lat="48.42164" lon="-0.21678">
        <ele>330</ele>
        <time>2019-08-23T14:09:04Z</time>
      </trkpt>
      <trkpt lat="48.42139" lon="-0.21528">
        <ele>340</ele>
        <time>2019-08-23T14:08:40Z</time>
      </trkpt>
      <trkpt lat="48.42116" lon="-0.21463">
        <ele>342</ele>
        <time>2019-08-23T14:08:29Z</time>
      </trkpt>
      <trkpt lat="48.42109" lon="-0.21435">
        <ele>343</ele>
        <time>2019-08-23T14:08:24Z</time>
      </trkpt>
      <trkpt lat="48.42134" lon="-0.21445">
        <ele>345</ele>
        <time>2019-08-23T14:08:18Z</time>
      </trkpt>
      <trkpt lat="48.42057" lon="-0.21185">
        <ele>366</ele>
        <time>2019-08-23T14:07:34Z</time>
      </trkpt>
      <trkpt lat="48.42032" lon="-0.21165">
        <ele>369</ele>
        <time>2019-08-23T14:07:27Z</time>
      </trkpt>
      <trkpt lat="48.42" lon="-0.21184">
        <ele>371</ele>
        <time>2019-08-23T14:07:19Z</time>
      </trkpt>
      <trkpt lat="48.41928" lon="-0.21214">
        <ele>374</ele>
        <time>2019-08-23T14:07:02Z</time>
      </trkpt>
      <trkpt lat="48.41781" lon="-0.21281">
        <ele>377</ele>
        <time>2019-08-23T14:06:26Z</time>
      </trkpt>
      <trkpt lat="48.41685" lon="-0.21311">
        <ele>375</ele>
        <time>2019-08-23T14:06:03Z</time>
      </trkpt>
      <trkpt lat="48.41606" lon="-0.21326">
        <ele>376</ele>
        <time>2019-08-23T14:05:44Z</time>
      </trkpt>
      <trkpt lat="48.41525" lon="-0.21371">
        <ele>376</ele>
        <time>2019-08-23T14:05:24Z</time>
      </trkpt>
      <trkpt lat="48.41442" lon="-0.21379">
        <ele>382</ele>
        <time>2019-08-23T14:05:05Z</time>
      </trkpt>
      <trkpt lat="48.41388" lon="-0.21431">
        <ele>384</ele>
        <time>2019-08-23T14:04:50Z</time>
      </trkpt>
      <trkpt lat="48.41328" lon="-0.21523">
        <ele>383</ele>
        <time>2019-08-23T14:04:30Z</time>
      </trkpt>
      <trkpt lat="48.41237" lon="-0.21592">
        <ele>379</ele>
        <time>2019-08-23T14:04:06Z</time>
      </trkpt>
      <trkpt lat="48.41137" lon="-0.21635">
        <ele>379</ele>
        <time>2019-08-23T14:03:42Z</time>
      </trkpt>
      <trkpt lat="48.41076" lon="-0.21688">
        <ele>379</ele>
        <time>2019-08-23T14:03:25Z</time>
      </trkpt>
      <trkpt lat="48.40995" lon="-0.21736">
        <ele>380</ele>
        <time>2019-08-23T14:03:05Z</time>
      </trkpt>
      <trkpt lat="48.40962" lon="-0.21781">
        <ele>378</ele>
        <time>2019-08-23T14:02:55Z</time>
      </trkpt>
      <trkpt lat="48.40923" lon="-0.21879">
        <ele>379</ele>
        <time>2019-08-23T14:02:37Z</time>
      </trkpt>
      <trkpt lat="48.40895" lon="-0.21965">
        <ele>376</ele>
        <time>2019-08-23T14:02:22Z</time>
      </trkpt>
      <trkpt lat="48.40782" lon="-0.21989">
        <ele>371</ele>
        <time>2019-08-23T14:01:55Z</time>
      </trkpt>
      <trkpt lat="48.40714" lon="-0.22012">
        <ele>366</ele>
        <time>2019-08-23T14:01:39Z</time>
      </trkpt>
      <trkpt lat="48.40671" lon="-0.22066">
        <ele>365</ele>
        <time>2019-08-23T14:01:26Z</time>
      </trkpt>
      <trkpt lat="48.40613" lon="-0.22062">
        <ele>358</ele>
        <time>2019-08-23T14:01:12Z</time>
      </trkpt>
      <trkpt lat="48.40552" lon="-0.22022">
        <ele>351</ele>
        <time>2019-08-23T14:00:57Z</time>
      </trkpt>
      <trkpt lat="48.4052" lon="-0.22027">
        <ele>348</ele>
        <time>2019-08-23T14:00:49Z</time>
      </trkpt>
      <trkpt lat="48.40486" lon="-0.22027">
        <ele>346</ele>
        <time>2019-08-23T14:00:41Z</time>
      </trkpt>
      <trkpt lat="48.4047" lon="-0.22009">
        <ele>344</ele>
        <time>2019-08-23T14:00:37Z</time>
      </trkpt>
      <trkpt lat="48.40401" lon="-0.21995">
        <ele>339</ele>
        <time>2019-08-23T14:00:21Z</time>
      </trkpt>
      <trkpt lat="48.40371" lon="-0.21942">
        <ele>334</ele>
        <time>2019-08-23T14:00:10Z</time>
      </trkpt>
      <trkpt lat="48.40332" lon="-0.2192">
        <ele>331</ele>
        <time>2019-08-23T14:00:00Z</time>
      </trkpt>
      <trkpt lat="48.4029" lon="-0.2189">
        <ele>324</ele>
        <time>2019-08-23T13:59:49Z</time>
      </trkpt>
      <trkpt lat="48.40231" lon="-0.21916">
        <ele>322</ele>
        <time>2019-08-23T13:59:35Z</time>
      </trkpt>
      <trkpt lat="48.40184" lon="-0.21959">
        <ele>316</ele>
        <time>2019-08-23T13:59:22Z</time>
      </trkpt>
      <trkpt lat="48.40151" lon="-0.21871">
        <ele>309</ele>
        <time>2019-08-23T13:59:06Z</time>
      </trkpt>
      <trkpt lat="48.40123" lon="-0.21817">
        <ele>304</ele>
        <time>2019-08-23T13:58:56Z</time>
      </trkpt>
      <trkpt lat="48.40097" lon="-0.21774">
        <ele>302</ele>
        <time>2019-08-23T13:58:47Z</time>
      </trkpt>
      <trkpt lat="48.40073" lon="-0.21742">
        <ele>301</ele>
        <time>2019-08-23T13:58:39Z</time>
      </trkpt>
      <trkpt lat="48.40047" lon="-0.21699">
        <ele>301</ele>
        <time>2019-08-23T13:58:30Z</time>
      </trkpt>
      <trkpt lat="48.40029" lon="-0.21656">
        <ele>301</ele>
        <time>2019-08-23T13:58:22Z</time>
      </trkpt>
      <trkpt lat="48.40013" lon="-0.21607">
        <ele>300</ele>
        <time>2019-08-23T13:58:14Z</time>
      </trkpt>
      <trkpt lat="48.40005" lon="-0.21562">
        <ele>299</ele>
        <time>2019-08-23T13:58:07Z</time>
      </trkpt>
      <trkpt lat="48.40002" lon="-0.21527">
        <ele>300</ele>
        <time>2019-08-23T13:58:01Z</time>
      </trkpt>
      <trkpt lat="48.39989" lon="-0.21465">
        <ele>300</ele>
        <time>2019-08-23T13:57:51Z</time>
      </trkpt>
      <trkpt lat="48.39946" lon="-0.2142">
        <ele>299</ele>
        <time>2019-08-23T13:57:39Z</time>
      </trkpt>
      <trkpt lat="48.39886" lon="-0.21379">
        <ele>298</ele>
        <time>2019-08-23T13:57:23Z</time>
      </trkpt>
      <trkpt lat="48.39805" lon="-0.21334">
        <ele>296</ele>
        <time>2019-08-23T13:57:03Z</time>
      </trkpt>
      <trkpt lat="48.39671" lon="-0.21283">
        <ele>291</ele>
        <time>2019-08-23T13:56:31Z</time>
      </trkpt>
      <trkpt lat="48.39647" lon="-0.21362">
        <ele>292</ele>
        <time>2019-08-23T13:56:18Z</time>
      </trkpt>
      <trkpt lat="48.39611" lon="-0.2142">
        <ele>292</ele>
        <time>2019-08-23T13:56:05Z</time>
      </trkpt>
      <trkpt lat="48.39586" lon="-0.21474">
        <ele>292</ele>
        <time>2019-08-23T13:55:55Z</time>
      </trkpt>
      <trkpt lat="48.39526" lon="-0.21469">
        <ele>290</ele>
        <time>2019-08-23T13:55:41Z</time>
      </trkpt>
      <trkpt lat="48.39456" lon="-0.21435">
        <ele>288</ele>
        <time>2019-08-23T13:55:24Z</time>
      </trkpt>
      <trkpt lat="48.39408" lon="-0.21394">
        <ele>286</ele>
        <time>2019-08-23T13:55:11Z</time>
      </trkpt>
      <trkpt lat="48.39246" lon="-0.21301">
        <ele>280</ele>
        <time>2019-08-23T13:54:30Z</time>
      </trkpt>
      <trkpt lat="48.39107" lon="-0.21227">
        <ele>270</ele>
        <time>2019-08-23T13:53:56Z</time>
      </trkpt>
      <trkpt lat="48.39077" lon="-0.21154">
        <ele>265</ele>
        <time>2019-08-23T13:53:43Z</time>
      </trkpt>
      <trkpt lat="48.39043" lon="-0.21115">
        <ele>262</ele>
        <time>2019-08-23T13:53:33Z</time>
      </trkpt>
      <trkpt lat="48.38945" lon="-0.21038">
        <ele>261</ele>
        <time>2019-08-23T13:53:07Z</time>
      </trkpt>
      <trkpt lat="48.38826" lon="-0.20912">
        <ele>265</ele>
        <time>2019-08-23T13:52:33Z</time>
      </trkpt>
      <trkpt lat="48.38747" lon="-0.20821">
        <ele>263</ele>
        <time>2019-08-23T13:52:10Z</time>
      </trkpt>
      <trkpt lat="48.38695" lon="-0.20733">
        <ele>264</ele>
        <time>2019-08-23T13:51:51Z</time>
      </trkpt>
      <trkpt lat="48.38627" lon="-0.20609">
        <ele>265</ele>
        <time>2019-08-23T13:51:26Z</time>
      </trkpt>
      <trkpt lat="48.38577" lon="-0.20534">
        <ele>267</ele>
        <time>2019-08-23T13:51:10Z</time>
      </trkpt>
      <trkpt lat="48.38543" lon="-0.2045">
        <ele>271</ele>
        <time>2019-08-23T13:50:55Z</time>
      </trkpt>
      <trkpt lat="48.38523" lon="-0.2039">
        <ele>273</ele>
        <time>2019-08-23T13:50:44Z</time>
      </trkpt>
      <trkpt lat="48.38494" lon="-0.20343">
        <ele>276</ele>
        <time>2019-08-23T13:50:34Z</time>
      </trkpt>
      <trkpt lat="48.38439" lon="-0.20265">
        <ele>279</ele>
        <time>2019-08-23T13:50:17Z</time>
      </trkpt>
      <trkpt lat="48.38391" lon="-0.20164">
        <ele>283</ele>
        <time>2019-08-23T13:49:57Z</time>
      </trkpt>
      <trkpt lat="48.38357" lon="-0.20045">
        <ele>286</ele>
        <time>2019-08-23T13:49:37Z</time>
      </trkpt>
      <trkpt lat="48.38331" lon="-0.19919">
        <ele>284</ele>
        <time>2019-08-23T13:49:17Z</time>
      </trkpt>
      <trkpt lat="48.3828" lon="-0.19811">
        <ele>285</ele>
        <time>2019-08-23T13:48:56Z</time>
      </trkpt>
      <trkpt lat="48.38228" lon="-0.19731">
        <ele>285</ele>
        <time>2019-08-23T13:48:39Z</time>
      </trkpt>
      <trkpt lat="48.38137" lon="-0.19656">
        <ele>282</ele>
        <time>2019-08-23T13:48:15Z</time>
      </trkpt>
      <trkpt lat="48.38038" lon="-0.19583">
        <ele>276</ele>
        <time>2019-08-23T13:47:49Z</time>
      </trkpt>
      <trkpt lat="48.37976" lon="-0.19526">
        <ele>271</ele>
        <time>2019-08-23T13:47:32Z</time>
      </trkpt>
      <trkpt lat="48.37883" lon="-0.19508">
        <ele>272</ele>
        <time>2019-08-23T13:47:10Z</time>
      </trkpt>
      <trkpt lat="48.37818" lon="-0.19432">
        <ele>271</ele>
        <time>2019-08-23T13:46:51Z</time>
      </trkpt>
      <trkpt lat="48.37756" lon="-0.19349">
        <ele>275</ele>
        <time>2019-08-23T13:46:32Z</time>
      </trkpt>
      <trkpt lat="48.37672" lon="-0.19262">
        <ele>279</ele>
        <time>2019-08-23T13:46:08Z</time>
      </trkpt>
      <trkpt lat="48.37532" lon="-0.19096">
        <ele>279</ele>
        <time>2019-08-23T13:45:26Z</time>
      </trkpt>
      <trkpt lat="48.37293" lon="-0.18783">
        <ele>276</ele>
        <time>2019-08-23T13:44:12Z</time>
      </trkpt>
      <trkpt lat="48.37173" lon="-0.18586">
        <ele>271</ele>
        <time>2019-08-23T13:43:31Z</time>
      </trkpt>
      <trkpt lat="48.37176" lon="-0.18545">
        <ele>271</ele>
        <time>2019-08-23T13:43:24Z</time>
      </trkpt>
      <trkpt lat="48.3716" lon="-0.18521">
        <ele>272</ele>
        <time>2019-08-23T13:43:19Z</time>
      </trkpt>
      <trkpt lat="48.37128" lon="-0.18491">
        <ele>272</ele>
        <time>2019-08-23T13:43:10Z</time>
      </trkpt>
      <trkpt lat="48.37076" lon="-0.18453">
        <ele>271</ele>
        <time>2019-08-23T13:42:57Z</time>
      </trkpt>
      <trkpt lat="48.37029" lon="-0.18365">
        <ele>271</ele>
        <time>2019-08-23T13:42:39Z</time>
      </trkpt>
      <trkpt lat="48.37001" lon="-0.18294">
        <ele>273</ele>
        <time>2019-08-23T13:42:26Z</time>
      </trkpt>
      <trkpt lat="48.36884" lon="-0.1806">
        <ele>275</ele>
        <time>2019-08-23T13:41:41Z</time>
      </trkpt>
      <trkpt lat="48.36911" lon="-0.1797">
        <ele>272</ele>
        <time>2019-08-23T13:41:26Z</time>
      </trkpt>
      <trkpt lat="48.36939" lon="-0.17912">
        <ele>269</ele>
        <time>2019-08-23T13:41:15Z</time>
      </trkpt>
      <trkpt lat="48.36888" lon="-0.17854">
        <ele>270</ele>
        <time>2019-08-23T13:41:00Z</time>
      </trkpt>
      <trkpt lat="48.36847" lon="-0.17789">
        <ele>272</ele>
        <time>2019-08-23T13:40:46Z</time>
      </trkpt>
      <trkpt lat="48.36774" lon="-0.17631">
        <ele>274</ele>
        <time>2019-08-23T13:40:16Z</time>
      </trkpt>
      <trkpt lat="48.365" lon="-0.17182">
        <ele>277</ele>
        <time>2019-08-23T13:38:41Z</time>
      </trkpt>
      <trkpt lat="48.36462" lon="-0.17239">
        <ele>281</ele>
        <time>2019-08-23T13:38:29Z</time>
      </trkpt>
      <trkpt lat="48.3636" lon="-0.17216">
        <ele>279</ele>
        <time>2019-08-23T13:38:05Z</time>
      </trkpt>
      <trkpt lat="48.36311" lon="-0.17227">
        <ele>276</ele>
        <time>2019-08-23T13:37:53Z</time>
      </trkpt>
      <trkpt lat="48.36227" lon="-0.17215">
        <ele>271</ele>
        <time>2019-08-23T13:37:33Z</time>
      </trkpt>
      <trkpt lat="48.36156" lon="-0.17212">
        <ele>266</ele>
        <time>2019-08-23T13:37:17Z</time>
      </trkpt>
      <trkpt lat="48.36078" lon="-0.17115">
        <ele>259</ele>
        <time>2019-08-23T13:36:53Z</time>
      </trkpt>
      <trkpt lat="48.36047" lon="-0.17111">
        <ele>254</ele>
        <time>2019-08-23T13:36:46Z</time>
      </trkpt>
      <trkpt lat="48.36025" lon="-0.17078">
        <ele>250</ele>
        <time>2019-08-23T13:36:39Z</time>
      </trkpt>
      <trkpt lat="48.35998" lon="-0.17078">
        <ele>245</ele>
        <time>2019-08-23T13:36:32Z</time>
      </trkpt>
      <trkpt lat="48.36" lon="-0.17026">
        <ele>244</ele>
        <time>2019-08-23T13:36:24Z</time>
      </trkpt>
      <trkpt lat="48.35998" lon="-0.16984">
        <ele>243</ele>
        <time>2019-08-23T13:36:18Z</time>
      </trkpt>
      <trkpt lat="48.3599" lon="-0.16934">
        <ele>244</ele>
        <time>2019-08-23T13:36:10Z</time>
      </trkpt>
      <trkpt lat="48.35989" lon="-0.16883">
        <ele>246</ele>
        <time>2019-08-23T13:36:02Z</time>
      </trkpt>
      <trkpt lat="48.35991" lon="-0.16848">
        <ele>247</ele>
        <time>2019-08-23T13:35:56Z</time>
      </trkpt>
      <trkpt lat="48.35988" lon="-0.16779">
        <ele>249</ele>
        <time>2019-08-23T13:35:46Z</time>
      </trkpt>
      <trkpt lat="48.35963" lon="-0.16667">
        <ele>253</ele>
        <time>2019-08-23T13:35:27Z</time>
      </trkpt>
      <trkpt lat="48.3591" lon="-0.16491">
        <ele>257</ele>
        <time>2019-08-23T13:34:57Z</time>
      </trkpt>
      <trkpt lat="48.35882" lon="-0.16433">
        <ele>256</ele>
        <time>2019-08-23T13:34:46Z</time>
      </trkpt>
      <trkpt lat="48.3587" lon="-0.16384">
        <ele>256</ele>
        <time>2019-08-23T13:34:38Z</time>
      </trkpt>
      <trkpt lat="48.35839" lon="-0.16339">
        <ele>253</ele>
        <time>2019-08-23T13:34:28Z</time>
      </trkpt>
      <trkpt lat="48.35825" lon="-0.16305">
        <ele>250</ele>
        <time>2019-08-23T13:34:22Z</time>
      </trkpt>
      <trkpt lat="48.35749" lon="-0.16266">
        <ele>245</ele>
        <time>2019-08-23T13:34:03Z</time>
      </trkpt>
      <trkpt lat="48.35642" lon="-0.16294">
        <ele>253</ele>
        <time>2019-08-23T13:33:38Z</time>
      </trkpt>
      <trkpt lat="48.35595" lon="-0.16221">
        <ele>256</ele>
        <time>2019-08-23T13:33:22Z</time>
      </trkpt>
      <trkpt lat="48.35534" lon="-0.16157">
        <ele>259</ele>
        <time>2019-08-23T13:33:05Z</time>
      </trkpt>
      <trkpt lat="48.35452" lon="-0.1609">
        <ele>263</ele>
        <time>2019-08-23T13:32:43Z</time>
      </trkpt>
      <trkpt lat="48.35407" lon="-0.16047">
        <ele>263</ele>
        <time>2019-08-23T13:32:30Z</time>
      </trkpt>
      <trkpt lat="48.3534" lon="-0.16019">
        <ele>264</ele>
        <time>2019-08-23T13:32:14Z</time>
      </trkpt>
      <trkpt lat="48.35256" lon="-0.15966">
        <ele>266</ele>
        <time>2019-08-23T13:31:53Z</time>
      </trkpt>
      <trkpt lat="48.35217" lon="-0.15912">
        <ele>265</ele>
        <time>2019-08-23T13:31:40Z</time>
      </trkpt>
      <trkpt lat="48.35132" lon="-0.15822">
        <ele>264</ele>
        <time>2019-08-23T13:31:16Z</time>
      </trkpt>
      <trkpt lat="48.35077" lon="-0.15794">
        <ele>265</ele>
        <time>2019-08-23T13:31:03Z</time>
      </trkpt>
      <trkpt lat="48.35027" lon="-0.15721">
        <ele>263</ele>
        <time>2019-08-23T13:30:46Z</time>
      </trkpt>
      <trkpt lat="48.34986" lon="-0.15654">
        <ele>260</ele>
        <time>2019-08-23T13:30:32Z</time>
      </trkpt>
      <trkpt lat="48.34916" lon="-0.15513">
        <ele>251</ele>
        <time>2019-08-23T13:30:05Z</time>
      </trkpt>
      <trkpt lat="48.34865" lon="-0.15425">
        <ele>243</ele>
        <time>2019-08-23T13:29:47Z</time>
      </trkpt>
      <trkpt lat="48.34816" lon="-0.15371">
        <ele>241</ele>
        <time>2019-08-23T13:29:33Z</time>
      </trkpt>
      <trkpt lat="48.34731" lon="-0.1532">
        <ele>245</ele>
        <time>2019-08-23T13:29:11Z</time>
      </trkpt>
      <trkpt lat="48.3449" lon="-0.14933">
        <ele>240</ele>
        <time>2019-08-23T13:27:49Z</time>
      </trkpt>
      <trkpt lat="48.34428" lon="-0.14811">
        <ele>239</ele>
        <time>2019-08-23T13:27:25Z</time>
      </trkpt>
      <trkpt lat="48.34614" lon="-0.14779">
        <ele>239</ele>
        <time>2019-08-23T13:26:41Z</time>
      </trkpt>
      <trkpt lat="48.34664" lon="-0.14749">
        <ele>243</ele>
        <time>2019-08-23T13:26:29Z</time>
      </trkpt>
      <trkpt lat="48.34717" lon="-0.14693">
        <ele>243</ele>
        <time>2019-08-23T13:26:14Z</time>
      </trkpt>
      <trkpt lat="48.34765" lon="-0.14652">
        <ele>243</ele>
        <time>2019-08-23T13:26:01Z</time>
      </trkpt>
      <trkpt lat="48.34824" lon="-0.14622">
        <ele>242</ele>
        <time>2019-08-23T13:25:46Z</time>
      </trkpt>
      <trkpt lat="48.34869" lon="-0.14614">
        <ele>241</ele>
        <time>2019-08-23T13:25:36Z</time>
      </trkpt>
      <trkpt lat="48.34909" lon="-0.14627">
        <ele>240</ele>
        <time>2019-08-23T13:25:26Z</time>
      </trkpt>
      <trkpt lat="48.34952" lon="-0.14674">
        <ele>240</ele>
        <time>2019-08-23T13:25:14Z</time>
      </trkpt>
      <trkpt lat="48.34985" lon="-0.14717">
        <ele>239</ele>
        <time>2019-08-23T13:25:03Z</time>
      </trkpt>
      <trkpt lat="48.35039" lon="-0.14732">
        <ele>240</ele>
        <time>2019-08-23T13:24:51Z</time>
      </trkpt>
      <trkpt lat="48.35026" lon="-0.14446">
        <ele>236</ele>
        <time>2019-08-23T13:24:06Z</time>
      </trkpt>
      <trkpt lat="48.35029" lon="-0.14251">
        <ele>236</ele>
        <time>2019-08-23T13:23:36Z</time>
      </trkpt>
      <trkpt lat="48.35023" lon="-0.14122">
        <ele>236</ele>
        <time>2019-08-23T13:23:16Z</time>
      </trkpt>
      <trkpt lat="48.34975" lon="-0.14086">
        <ele>238</ele>
        <time>2019-08-23T13:23:03Z</time>
      </trkpt>
      <trkpt lat="48.34923" lon="-0.14067">
        <ele>240</ele>
        <time>2019-08-23T13:22:51Z</time>
      </trkpt>
      <trkpt lat="48.34862" lon="-0.14079">
        <ele>241</ele>
        <time>2019-08-23T13:22:36Z</time>
      </trkpt>
      <trkpt lat="48.34855" lon="-0.14028">
        <ele>243</ele>
        <time>2019-08-23T13:22:28Z</time>
      </trkpt>
      <trkpt lat="48.34853" lon="-0.13552">
        <ele>232</ele>
        <time>2019-08-23T13:21:14Z</time>
      </trkpt>
      <trkpt lat="48.34856" lon="-0.13394">
        <ele>230</ele>
        <time>2019-08-23T13:20:50Z</time>
      </trkpt>
      <trkpt lat="48.34796" lon="-0.13384">
        <ele>229.1328125</ele>
      </trkpt>
      <trkpt lat="48.34753" lon="-0.13358">
        <ele>229.84375</ele>
      </trkpt>
      <trkpt lat="48.34694" lon="-0.13306">
        <ele>231</ele>
      </trkpt>
      <trkpt lat="48.34652" lon="-0.13291">
        <ele>230.38671875</ele>
      </trkpt>
      <trkpt lat="48.34589" lon="-0.13265">
        <ele>227.3203125</ele>
      </trkpt>
      <trkpt lat="48.34523" lon="-0.13241">
        <ele>224.30859375</ele>
      </trkpt>
      <trkpt lat="48.34482" lon="-0.13239">
        <ele>221.765625</ele>
      </trkpt>
      <trkpt lat="48.34405" lon="-0.13238">
        <ele>222</ele>
        <time>2019-08-23T15:56:52Z</time>
      </trkpt>
      <trkpt lat="48.34361" lon="-0.1322">
        <ele>223</ele>
        <time>2019-08-23T15:56:42Z</time>
      </trkpt>
      <trkpt lat="48.34305" lon="-0.13174">
        <ele>225</ele>
        <time>2019-08-23T15:56:27Z</time>
      </trkpt>
      <trkpt lat="48.34176" lon="-0.12919">
        <ele>234</ele>
        <time>2019-08-23T15:55:37Z</time>
      </trkpt>
      <trkpt lat="48.34132" lon="-0.1284">
        <ele>235</ele>
        <time>2019-08-23T15:55:21Z</time>
      </trkpt>
      <trkpt lat="48.34096" lon="-0.128">
        <ele>237</ele>
        <time>2019-08-23T15:55:11Z</time>
      </trkpt>
      <trkpt lat="48.34058" lon="-0.12794">
        <ele>237</ele>
        <time>2019-08-23T15:55:02Z</time>
      </trkpt>
      <trkpt lat="48.3398" lon="-0.12833">
        <ele>236</ele>
        <time>2019-08-23T15:54:43Z</time>
      </trkpt>
      <trkpt lat="48.34049" lon="-0.13039">
        <ele>233</ele>
        <time>2019-08-23T15:54:07Z</time>
      </trkpt>
      <trkpt lat="48.34073" lon="-0.13131">
        <ele>233</ele>
        <time>2019-08-23T15:53:51Z</time>
      </trkpt>
      <trkpt lat="48.34102" lon="-0.13322">
        <ele>233</ele>
        <time>2019-08-23T15:53:21Z</time>
      </trkpt>
      <trkpt lat="48.34114" lon="-0.13425">
        <ele>232</ele>
        <time>2019-08-23T15:53:05Z</time>
      </trkpt>
      <trkpt lat="48.34136" lon="-0.1356">
        <ele>234</ele>
        <time>2019-08-23T15:52:43Z</time>
      </trkpt>
      <trkpt lat="48.34143" lon="-0.13631">
        <ele>234</ele>
        <time>2019-08-23T15:52:32Z</time>
      </trkpt>
      <trkpt lat="48.34053" lon="-0.13634">
        <ele>236</ele>
        <time>2019-08-23T15:52:11Z</time>
      </trkpt>
      <trkpt lat="48.33968" lon="-0.13657">
        <ele>236</ele>
        <time>2019-08-23T15:51:51Z</time>
      </trkpt>
      <trkpt lat="48.33858" lon="-0.1368">
        <ele>233</ele>
        <time>2019-08-23T15:51:25Z</time>
      </trkpt>
      <trkpt lat="48.33741" lon="-0.1369">
        <ele>228</ele>
        <time>2019-08-23T15:50:58Z</time>
      </trkpt>
      <trkpt lat="48.3369" lon="-0.13659">
        <ele>221</ele>
        <time>2019-08-23T15:50:45Z</time>
      </trkpt>
      <trkpt lat="48.33633" lon="-0.13587">
        <ele>211</ele>
        <time>2019-08-23T15:50:27Z</time>
      </trkpt>
      <trkpt lat="48.33554" lon="-0.13614">
        <ele>197</ele>
        <time>2019-08-23T15:50:08Z</time>
      </trkpt>
      <trkpt lat="48.33518" lon="-0.13605">
        <ele>191</ele>
        <time>2019-08-23T15:50:00Z</time>
      </trkpt>
      <trkpt lat="48.33465" lon="-0.13599">
        <ele>185</ele>
        <time>2019-08-23T15:49:47Z</time>
      </trkpt>
      <trkpt lat="48.33426" lon="-0.1362">
        <ele>183</ele>
        <time>2019-08-23T15:49:38Z</time>
      </trkpt>
      <trkpt lat="48.33416" lon="-0.13608">
        <ele>181</ele>
        <time>2019-08-23T15:49:35Z</time>
      </trkpt>
      <trkpt lat="48.33372" lon="-0.13631">
        <ele>179</ele>
        <time>2019-08-23T15:49:24Z</time>
      </trkpt>
      <trkpt lat="48.33367" lon="-0.13652">
        <ele>179</ele>
        <time>2019-08-23T15:49:20Z</time>
      </trkpt>
      <trkpt lat="48.33371" lon="-0.13718">
        <ele>181</ele>
        <time>2019-08-23T15:49:10Z</time>
      </trkpt>
      <trkpt lat="48.33388" lon="-0.13802">
        <ele>180</ele>
        <time>2019-08-23T15:48:57Z</time>
      </trkpt>
      <trkpt lat="48.33374" lon="-0.13881">
        <ele>176</ele>
        <time>2019-08-23T15:48:44Z</time>
      </trkpt>
      <trkpt lat="48.33345" lon="-0.13948">
        <ele>170</ele>
        <time>2019-08-23T15:48:31Z</time>
      </trkpt>
      <trkpt lat="48.33288" lon="-0.14001">
        <ele>158</ele>
        <time>2019-08-23T15:48:16Z</time>
      </trkpt>
      <trkpt lat="48.33235" lon="-0.14078">
        <ele>153</ele>
        <time>2019-08-23T15:47:59Z</time>
      </trkpt>
      <trkpt lat="48.33142" lon="-0.14147">
        <ele>135</ele>
        <time>2019-08-23T15:47:34Z</time>
      </trkpt>
      <trkpt lat="48.33116" lon="-0.14244">
        <ele>130</ele>
        <time>2019-08-23T15:47:18Z</time>
      </trkpt>
      <trkpt lat="48.33115" lon="-0.14328">
        <ele>128</ele>
        <time>2019-08-23T15:47:05Z</time>
      </trkpt>
      <trkpt lat="48.33106" lon="-0.14432">
        <ele>123</ele>
        <time>2019-08-23T15:46:49Z</time>
      </trkpt>
      <trkpt lat="48.33113" lon="-0.14524">
        <ele>125</ele>
        <time>2019-08-23T15:46:34Z</time>
      </trkpt>
      <trkpt lat="48.33062" lon="-0.14621">
        <ele>117</ele>
        <time>2019-08-23T15:46:15Z</time>
      </trkpt>
      <trkpt lat="48.33067" lon="-0.14683">
        <ele>117</ele>
        <time>2019-08-23T15:46:06Z</time>
      </trkpt>
      <trkpt lat="48.33086" lon="-0.1481">
        <ele>117</ele>
        <time>2019-08-23T15:45:45Z</time>
      </trkpt>
      <trkpt lat="48.3308" lon="-0.14855">
        <ele>117</ele>
        <time>2019-08-23T15:45:38Z</time>
      </trkpt>
      <trkpt lat="48.33066" lon="-0.1489">
        <ele>119</ele>
        <time>2019-08-23T15:45:32Z</time>
      </trkpt>
      <trkpt lat="48.33062" lon="-0.14918">
        <ele>120</ele>
        <time>2019-08-23T15:45:27Z</time>
      </trkpt>
      <trkpt lat="48.33074" lon="-0.14944">
        <ele>120</ele>
        <time>2019-08-23T15:45:22Z</time>
      </trkpt>
      <trkpt lat="48.33077" lon="-0.15001">
        <ele>123</ele>
        <time>2019-08-23T15:45:14Z</time>
      </trkpt>
      <trkpt lat="48.33101" lon="-0.15083">
        <ele>135</ele>
        <time>2019-08-23T15:45:00Z</time>
      </trkpt>
      <trkpt lat="48.33113" lon="-0.15115">
        <ele>139</ele>
        <time>2019-08-23T15:44:54Z</time>
      </trkpt>
      <trkpt lat="48.33141" lon="-0.1515">
        <ele>138</ele>
        <time>2019-08-23T15:44:45Z</time>
      </trkpt>
      <trkpt lat="48.33182" lon="-0.15186">
        <ele>135</ele>
        <time>2019-08-23T15:44:34Z</time>
      </trkpt>
      <trkpt lat="48.33206" lon="-0.15213">
        <ele>134</ele>
        <time>2019-08-23T15:44:27Z</time>
      </trkpt>
      <trkpt lat="48.3323" lon="-0.1525">
        <ele>133</ele>
        <time>2019-08-23T15:44:19Z</time>
      </trkpt>
      <trkpt lat="48.33254" lon="-0.15312">
        <ele>132</ele>
        <time>2019-08-23T15:44:08Z</time>
      </trkpt>
      <trkpt lat="48.33268" lon="-0.15365">
        <ele>134</ele>
        <time>2019-08-23T15:43:59Z</time>
      </trkpt>
      <trkpt lat="48.33274" lon="-0.15482">
        <ele>138</ele>
        <time>2019-08-23T15:43:41Z</time>
      </trkpt>
      <trkpt lat="48.33274" lon="-0.15541">
        <ele>137</ele>
        <time>2019-08-23T15:43:32Z</time>
      </trkpt>
      <trkpt lat="48.3328" lon="-0.15631">
        <ele>132</ele>
        <time>2019-08-23T15:43:18Z</time>
      </trkpt>
      <trkpt lat="48.33278" lon="-0.15675">
        <ele>131</ele>
        <time>2019-08-23T15:43:11Z</time>
      </trkpt>
      <trkpt lat="48.33265" lon="-0.15724">
        <ele>133</ele>
        <time>2019-08-23T15:43:03Z</time>
      </trkpt>
      <trkpt lat="48.33285" lon="-0.15743">
        <ele>131</ele>
        <time>2019-08-23T15:42:57Z</time>
      </trkpt>
      <trkpt lat="48.33302" lon="-0.15752">
        <ele>130</ele>
        <time>2019-08-23T15:42:53Z</time>
      </trkpt>
      <trkpt lat="48.33307" lon="-0.1578">
        <ele>130</ele>
        <time>2019-08-23T15:42:49Z</time>
      </trkpt>
      <trkpt lat="48.33308" lon="-0.15813">
        <ele>131</ele>
        <time>2019-08-23T15:42:44Z</time>
      </trkpt>
      <trkpt lat="48.33305" lon="-0.15842">
        <ele>132</ele>
        <time>2019-08-23T15:42:39Z</time>
      </trkpt>
      <trkpt lat="48.33298" lon="-0.15874">
        <ele>133</ele>
        <time>2019-08-23T15:42:34Z</time>
      </trkpt>
      <trkpt lat="48.33297" lon="-0.15897">
        <ele>134</ele>
        <time>2019-08-23T15:42:30Z</time>
      </trkpt>
      <trkpt lat="48.333" lon="-0.15952">
        <ele>135</ele>
        <time>2019-08-23T15:42:22Z</time>
      </trkpt>
      <trkpt lat="48.33307" lon="-0.16003">
        <ele>135</ele>
        <time>2019-08-23T15:42:14Z</time>
      </trkpt>
      <trkpt lat="48.33324" lon="-0.16064">
        <ele>133</ele>
        <time>2019-08-23T15:42:03Z</time>
      </trkpt>
      <trkpt lat="48.33328" lon="-0.1611">
        <ele>136</ele>
        <time>2019-08-23T15:41:56Z</time>
      </trkpt>
      <trkpt lat="48.33321" lon="-0.1622">
        <ele>148</ele>
        <time>2019-08-23T15:41:39Z</time>
      </trkpt>
      <trkpt lat="48.33293" lon="-0.16395">
        <ele>152</ele>
        <time>2019-08-23T15:41:11Z</time>
      </trkpt>
      <trkpt lat="48.3329" lon="-0.1644">
        <ele>151</ele>
        <time>2019-08-23T15:41:04Z</time>
      </trkpt>
      <trkpt lat="48.33321" lon="-0.16676">
        <ele>150</ele>
        <time>2019-08-23T15:40:27Z</time>
      </trkpt>
      <trkpt lat="48.3335" lon="-0.16775">
        <ele>158</ele>
        <time>2019-08-23T15:40:10Z</time>
      </trkpt>
      <trkpt lat="48.33376" lon="-0.16803">
        <ele>155</ele>
        <time>2019-08-23T15:40:02Z</time>
      </trkpt>
      <trkpt lat="48.33417" lon="-0.16828">
        <ele>145</ele>
        <time>2019-08-23T15:39:52Z</time>
      </trkpt>
      <trkpt lat="48.33444" lon="-0.16863">
        <ele>146</ele>
        <time>2019-08-23T15:39:44Z</time>
      </trkpt>
      <trkpt lat="48.33476" lon="-0.16931">
        <ele>144</ele>
        <time>2019-08-23T15:39:31Z</time>
      </trkpt>
      <trkpt lat="48.33484" lon="-0.1699">
        <ele>144</ele>
        <time>2019-08-23T15:39:21Z</time>
      </trkpt>
      <trkpt lat="48.33479" lon="-0.17048">
        <ele>146</ele>
        <time>2019-08-23T15:39:12Z</time>
      </trkpt>
      <trkpt lat="48.33444" lon="-0.17174">
        <ele>154</ele>
        <time>2019-08-23T15:38:51Z</time>
      </trkpt>
      <trkpt lat="48.3344" lon="-0.17239">
        <ele>153</ele>
        <time>2019-08-23T15:38:41Z</time>
      </trkpt>
      <trkpt lat="48.33428" lon="-0.17284">
        <ele>153</ele>
        <time>2019-08-23T15:38:33Z</time>
      </trkpt>
      <trkpt lat="48.33428" lon="-0.17339">
        <ele>150</ele>
        <time>2019-08-23T15:38:25Z</time>
      </trkpt>
      <trkpt lat="48.33414" lon="-0.17429">
        <ele>150</ele>
        <time>2019-08-23T15:38:11Z</time>
      </trkpt>
      <trkpt lat="48.33425" lon="-0.17498">
        <ele>153</ele>
        <time>2019-08-23T15:38:00Z</time>
      </trkpt>
      <trkpt lat="48.33446" lon="-0.17568">
        <ele>150</ele>
        <time>2019-08-23T15:37:48Z</time>
      </trkpt>
      <trkpt lat="48.33452" lon="-0.17618">
        <ele>149</ele>
        <time>2019-08-23T15:37:40Z</time>
      </trkpt>
      <trkpt lat="48.33445" lon="-0.17696">
        <ele>150</ele>
        <time>2019-08-23T15:37:28Z</time>
      </trkpt>
      <trkpt lat="48.33457" lon="-0.17755">
        <ele>149</ele>
        <time>2019-08-23T15:37:18Z</time>
      </trkpt>
      <trkpt lat="48.33477" lon="-0.17822">
        <ele>147</ele>
        <time>2019-08-23T15:37:07Z</time>
      </trkpt>
      <trkpt lat="48.33498" lon="-0.17852">
        <ele>145</ele>
        <time>2019-08-23T15:37:00Z</time>
      </trkpt>
      <trkpt lat="48.33505" lon="-0.17881">
        <ele>145</ele>
        <time>2019-08-23T15:36:55Z</time>
      </trkpt>
      <trkpt lat="48.3351" lon="-0.17932">
        <ele>145</ele>
        <time>2019-08-23T15:36:47Z</time>
      </trkpt>
      <trkpt lat="48.33532" lon="-0.1804">
        <ele>146</ele>
        <time>2019-08-23T15:36:29Z</time>
      </trkpt>
      <trkpt lat="48.33521" lon="-0.18066">
        <ele>148</ele>
        <time>2019-08-23T15:36:25Z</time>
      </trkpt>
      <trkpt lat="48.33468" lon="-0.18114">
        <ele>153</ele>
        <time>2019-08-23T15:36:10Z</time>
      </trkpt>
      <trkpt lat="48.33482" lon="-0.18139">
        <ele>153</ele>
        <time>2019-08-23T15:36:05Z</time>
      </trkpt>
      <trkpt lat="48.33503" lon="-0.18186">
        <ele>150</ele>
        <time>2019-08-23T15:35:56Z</time>
      </trkpt>
      <trkpt lat="48.33541" lon="-0.1831">
        <ele>148</ele>
        <time>2019-08-23T15:35:35Z</time>
      </trkpt>
      <trkpt lat="48.33562" lon="-0.18366">
        <ele>147</ele>
        <time>2019-08-23T15:35:25Z</time>
      </trkpt>
      <trkpt lat="48.33587" lon="-0.18422">
        <ele>147</ele>
        <time>2019-08-23T15:35:15Z</time>
      </trkpt>
      <trkpt lat="48.33623" lon="-0.18442">
        <ele>145</ele>
        <time>2019-08-23T15:35:06Z</time>
      </trkpt>
      <trkpt lat="48.33656" lon="-0.18442">
        <ele>141</ele>
        <time>2019-08-23T15:34:58Z</time>
      </trkpt>
      <trkpt lat="48.33701" lon="-0.18435">
        <ele>143</ele>
        <time>2019-08-23T15:34:47Z</time>
      </trkpt>
      <trkpt lat="48.3373" lon="-0.18412">
        <ele>145</ele>
        <time>2019-08-23T15:34:40Z</time>
      </trkpt>
      <trkpt lat="48.33742" lon="-0.18392">
        <ele>145</ele>
        <time>2019-08-23T15:34:36Z</time>
      </trkpt>
      <trkpt lat="48.33764" lon="-0.1837">
        <ele>149</ele>
        <time>2019-08-23T15:34:29Z</time>
      </trkpt>
      <trkpt lat="48.33769" lon="-0.18421">
        <ele>149</ele>
        <time>2019-08-23T15:34:21Z</time>
      </trkpt>
      <trkpt lat="48.33744" lon="-0.18518">
        <ele>149</ele>
        <time>2019-08-23T15:34:05Z</time>
      </trkpt>
      <trkpt lat="48.33737" lon="-0.18633">
        <ele>153</ele>
        <time>2019-08-23T15:33:47Z</time>
      </trkpt>
      <trkpt lat="48.33722" lon="-0.18681">
        <ele>154</ele>
        <time>2019-08-23T15:33:39Z</time>
      </trkpt>
      <trkpt lat="48.33715" lon="-0.18742">
        <ele>156</ele>
        <time>2019-08-23T15:33:30Z</time>
      </trkpt>
      <trkpt lat="48.33734" lon="-0.18811">
        <ele>155</ele>
        <time>2019-08-23T15:33:18Z</time>
      </trkpt>
      <trkpt lat="48.33759" lon="-0.18888">
        <ele>153</ele>
        <time>2019-08-23T15:33:05Z</time>
      </trkpt>
      <trkpt lat="48.33813" lon="-0.18992">
        <ele>157</ele>
        <time>2019-08-23T15:32:44Z</time>
      </trkpt>
      <trkpt lat="48.33841" lon="-0.19074">
        <ele>154</ele>
        <time>2019-08-23T15:32:30Z</time>
      </trkpt>
      <trkpt lat="48.33856" lon="-0.19202">
        <ele>152</ele>
        <time>2019-08-23T15:32:10Z</time>
      </trkpt>
      <trkpt lat="48.33881" lon="-0.19278">
        <ele>150</ele>
        <time>2019-08-23T15:31:57Z</time>
      </trkpt>
      <trkpt lat="48.339" lon="-0.19278">
        <ele>150</ele>
        <time>2019-08-23T15:31:52Z</time>
      </trkpt>
      <trkpt lat="48.33916" lon="-0.19268">
        <ele>150</ele>
        <time>2019-08-23T15:31:48Z</time>
      </trkpt>
      <trkpt lat="48.33938" lon="-0.19299">
        <ele>153</ele>
        <time>2019-08-23T15:31:41Z</time>
      </trkpt>
      <trkpt lat="48.33958" lon="-0.19316">
        <ele>158</ele>
        <time>2019-08-23T15:31:36Z</time>
      </trkpt>
      <trkpt lat="48.33983" lon="-0.19313">
        <ele>164</ele>
        <time>2019-08-23T15:31:30Z</time>
      </trkpt>
      <trkpt lat="48.34003" lon="-0.19328">
        <ele>169</ele>
        <time>2019-08-23T15:31:25Z</time>
      </trkpt>
      <trkpt lat="48.3401" lon="-0.19309">
        <ele>169</ele>
        <time>2019-08-23T15:31:21Z</time>
      </trkpt>
      <trkpt lat="48.34046" lon="-0.19278">
        <ele>172</ele>
        <time>2019-08-23T15:31:11Z</time>
      </trkpt>
      <trkpt lat="48.34126" lon="-0.19263">
        <ele>175</ele>
        <time>2019-08-23T15:30:53Z</time>
      </trkpt>
      <trkpt lat="48.34205" lon="-0.19337">
        <ele>183</ele>
        <time>2019-08-23T15:30:31Z</time>
      </trkpt>
      <trkpt lat="48.34343" lon="-0.19434">
        <ele>188</ele>
        <time>2019-08-23T15:29:55Z</time>
      </trkpt>
      <trkpt lat="48.34459" lon="-0.19485">
        <ele>191</ele>
        <time>2019-08-23T15:29:27Z</time>
      </trkpt>
      <trkpt lat="48.34505" lon="-0.19488">
        <ele>193</ele>
        <time>2019-08-23T15:29:16Z</time>
      </trkpt>
      <trkpt lat="48.34561" lon="-0.19497">
        <ele>197</ele>
        <time>2019-08-23T15:29:03Z</time>
      </trkpt>
      <trkpt lat="48.34606" lon="-0.19516">
        <ele>201</ele>
        <time>2019-08-23T15:28:52Z</time>
      </trkpt>
      <trkpt lat="48.34759" lon="-0.19541">
        <ele>210</ele>
        <time>2019-08-23T15:28:16Z</time>
      </trkpt>
      <trkpt lat="48.3481" lon="-0.19568">
        <ele>210</ele>
        <time>2019-08-23T15:28:04Z</time>
      </trkpt>
      <trkpt lat="48.34798" lon="-0.19673">
        <ele>218</ele>
        <time>2019-08-23T15:27:47Z</time>
      </trkpt>
      <trkpt lat="48.34804" lon="-0.19702">
        <ele>219</ele>
        <time>2019-08-23T15:27:43Z</time>
      </trkpt>
      <trkpt lat="48.34815" lon="-0.19783">
        <ele>222</ele>
        <time>2019-08-23T15:27:30Z</time>
      </trkpt>
      <trkpt lat="48.34838" lon="-0.19857">
        <ele>226</ele>
        <time>2019-08-23T15:27:17Z</time>
      </trkpt>
      <trkpt lat="48.34863" lon="-0.19893">
        <ele>228</ele>
        <time>2019-08-23T15:27:09Z</time>
      </trkpt>
      <trkpt lat="48.34915" lon="-0.19987">
        <ele>231</ele>
        <time>2019-08-23T15:26:50Z</time>
      </trkpt>
      <trkpt lat="48.34958" lon="-0.20038">
        <ele>228</ele>
        <time>2019-08-23T15:26:37Z</time>
      </trkpt>
      <trkpt lat="48.34972" lon="-0.20076">
        <ele>227</ele>
        <time>2019-08-23T15:26:30Z</time>
      </trkpt>
      <trkpt lat="48.34986" lon="-0.20125">
        <ele>225</ele>
        <time>2019-08-23T15:26:22Z</time>
      </trkpt>
      <trkpt lat="48.35004" lon="-0.20165">
        <ele>222</ele>
        <time>2019-08-23T15:26:15Z</time>
      </trkpt>
      <trkpt lat="48.35073" lon="-0.20266">
        <ele>210</ele>
        <time>2019-08-23T15:25:52Z</time>
      </trkpt>
      <trkpt lat="48.35089" lon="-0.20336">
        <ele>205</ele>
        <time>2019-08-23T15:25:41Z</time>
      </trkpt>
      <trkpt lat="48.35095" lon="-0.20461">
        <ele>193</ele>
        <time>2019-08-23T15:25:21Z</time>
      </trkpt>
      <trkpt lat="48.35121" lon="-0.20489">
        <ele>191</ele>
        <time>2019-08-23T15:25:14Z</time>
      </trkpt>
      <trkpt lat="48.35112" lon="-0.20518">
        <ele>190</ele>
        <time>2019-08-23T15:25:09Z</time>
      </trkpt>
      <trkpt lat="48.3511" lon="-0.20532">
        <ele>190</ele>
        <time>2019-08-23T15:25:07Z</time>
      </trkpt>
      <trkpt lat="48.35129" lon="-0.20534">
        <ele>191</ele>
        <time>2019-08-23T15:25:02Z</time>
      </trkpt>
      <trkpt lat="48.35142" lon="-0.20559">
        <ele>192</ele>
        <time>2019-08-23T15:24:57Z</time>
      </trkpt>
      <trkpt lat="48.3516" lon="-0.2063">
        <ele>198</ele>
        <time>2019-08-23T15:24:45Z</time>
      </trkpt>
      <trkpt lat="48.35175" lon="-0.20674">
        <ele>203</ele>
        <time>2019-08-23T15:24:38Z</time>
      </trkpt>
      <trkpt lat="48.35198" lon="-0.20717">
        <ele>208</ele>
        <time>2019-08-23T15:24:29Z</time>
      </trkpt>
      <trkpt lat="48.35221" lon="-0.20779">
        <ele>211</ele>
        <time>2019-08-23T15:24:18Z</time>
      </trkpt>
      <trkpt lat="48.35227" lon="-0.20832">
        <ele>212</ele>
        <time>2019-08-23T15:24:10Z</time>
      </trkpt>
      <trkpt lat="48.35221" lon="-0.20872">
        <ele>215</ele>
        <time>2019-08-23T15:24:03Z</time>
      </trkpt>
      <trkpt lat="48.35214" lon="-0.20884">
        <ele>216</ele>
        <time>2019-08-23T15:24:01Z</time>
      </trkpt>
      <trkpt lat="48.35186" lon="-0.20874">
        <ele>220</ele>
        <time>2019-08-23T15:23:54Z</time>
      </trkpt>
      <trkpt lat="48.3517" lon="-0.20853">
        <ele>222</ele>
        <time>2019-08-23T15:23:49Z</time>
      </trkpt>
      <trkpt lat="48.35162" lon="-0.20826">
        <ele>220</ele>
        <time>2019-08-23T15:23:45Z</time>
      </trkpt>
      <trkpt lat="48.3514" lon="-0.20838">
        <ele>221</ele>
        <time>2019-08-23T15:23:39Z</time>
      </trkpt>
      <trkpt lat="48.35119" lon="-0.20861">
        <ele>223</ele>
        <time>2019-08-23T15:23:33Z</time>
      </trkpt>
      <trkpt lat="48.35048" lon="-0.20902">
        <ele>228</ele>
        <time>2019-08-23T15:23:15Z</time>
      </trkpt>
      <trkpt lat="48.34991" lon="-0.20924">
        <ele>229</ele>
        <time>2019-08-23T15:23:02Z</time>
      </trkpt>
      <trkpt lat="48.34937" lon="-0.20982">
        <ele>232</ele>
        <time>2019-08-23T15:22:46Z</time>
      </trkpt>
      <trkpt lat="48.34894" lon="-0.21035">
        <ele>232</ele>
        <time>2019-08-23T15:22:33Z</time>
      </trkpt>
      <trkpt lat="48.34827" lon="-0.21124">
        <ele>231</ele>
        <time>2019-08-23T15:22:12Z</time>
      </trkpt>
      <trkpt lat="48.34789" lon="-0.21217">
        <ele>227</ele>
        <time>2019-08-23T15:21:55Z</time>
      </trkpt>
      <trkpt lat="48.34799" lon="-0.21356">
        <ele>228</ele>
        <time>2019-08-23T15:21:34Z</time>
      </trkpt>
      <trkpt lat="48.34798" lon="-0.21375">
        <ele>228</ele>
        <time>2019-08-23T15:21:31Z</time>
      </trkpt>
      <trkpt lat="48.34789" lon="-0.21405">
        <ele>227</ele>
        <time>2019-08-23T15:21:26Z</time>
      </trkpt>
      <trkpt lat="48.34798" lon="-0.21493">
        <ele>229</ele>
        <time>2019-08-23T15:21:12Z</time>
      </trkpt>
      <trkpt lat="48.3479" lon="-0.21539">
        <ele>229</ele>
        <time>2019-08-23T15:21:04Z</time>
      </trkpt>
      <trkpt lat="48.3478" lon="-0.21634">
        <ele>230</ele>
        <time>2019-08-23T15:20:49Z</time>
      </trkpt>
      <trkpt lat="48.34789" lon="-0.21685">
        <ele>233</ele>
        <time>2019-08-23T15:20:41Z</time>
      </trkpt>
      <trkpt lat="48.34796" lon="-0.21863">
        <ele>235</ele>
        <time>2019-08-23T15:20:14Z</time>
      </trkpt>
      <trkpt lat="48.34792" lon="-0.22042">
        <ele>231</ele>
        <time>2019-08-23T15:19:46Z</time>
      </trkpt>
      <trkpt lat="48.34798" lon="-0.22215">
        <ele>231</ele>
        <time>2019-08-23T15:19:19Z</time>
      </trkpt>
      <trkpt lat="48.34805" lon="-0.22301">
        <ele>232</ele>
        <time>2019-08-23T15:19:05Z</time>
      </trkpt>
      <trkpt lat="48.34814" lon="-0.22356">
        <ele>233</ele>
        <time>2019-08-23T15:18:57Z</time>
      </trkpt>
      <trkpt lat="48.34815" lon="-0.22395">
        <ele>233</ele>
        <time>2019-08-23T15:18:51Z</time>
      </trkpt>
      <trkpt lat="48.34819" lon="-0.22417">
        <ele>234</ele>
        <time>2019-08-23T15:18:47Z</time>
      </trkpt>
      <trkpt lat="48.34804" lon="-0.22422">
        <ele>232</ele>
        <time>2019-08-23T15:18:43Z</time>
      </trkpt>
      <trkpt lat="48.34786" lon="-0.2241">
        <ele>230</ele>
        <time>2019-08-23T15:18:39Z</time>
      </trkpt>
      <trkpt lat="48.34769" lon="-0.22391">
        <ele>227</ele>
        <time>2019-08-23T15:18:34Z</time>
      </trkpt>
      <trkpt lat="48.34742" lon="-0.22368">
        <ele>222</ele>
        <time>2019-08-23T15:18:27Z</time>
      </trkpt>
      <trkpt lat="48.34739" lon="-0.22381">
        <ele>222</ele>
        <time>2019-08-23T15:18:25Z</time>
      </trkpt>
      <trkpt lat="48.34719" lon="-0.22406">
        <ele>218</ele>
        <time>2019-08-23T15:18:18Z</time>
      </trkpt>
      <trkpt lat="48.34719" lon="-0.22428">
        <ele>218</ele>
        <time>2019-08-23T15:18:15Z</time>
      </trkpt>
      <trkpt lat="48.34709" lon="-0.22448">
        <ele>216</ele>
        <time>2019-08-23T15:18:11Z</time>
      </trkpt>
      <trkpt lat="48.346" lon="-0.2251">
        <ele>199</ele>
        <time>2019-08-23T15:17:44Z</time>
      </trkpt>
      <trkpt lat="48.34518" lon="-0.22577">
        <ele>190</ele>
        <time>2019-08-23T15:17:22Z</time>
      </trkpt>
      <trkpt lat="48.34454" lon="-0.22592">
        <ele>184</ele>
        <time>2019-08-23T15:17:07Z</time>
      </trkpt>
      <trkpt lat="48.34377" lon="-0.22583">
        <ele>177</ele>
        <time>2019-08-23T15:16:49Z</time>
      </trkpt>
      <trkpt lat="48.34346" lon="-0.22613">
        <ele>174</ele>
        <time>2019-08-23T15:16:40Z</time>
      </trkpt>
      <trkpt lat="48.34341" lon="-0.22645">
        <ele>173</ele>
        <time>2019-08-23T15:16:35Z</time>
      </trkpt>
      <trkpt lat="48.34351" lon="-0.2271">
        <ele>172</ele>
        <time>2019-08-23T15:16:25Z</time>
      </trkpt>
      <trkpt lat="48.34424" lon="-0.23025">
        <ele>172</ele>
        <time>2019-08-23T15:15:33Z</time>
      </trkpt>
      <trkpt lat="48.3445" lon="-0.23059">
        <ele>174</ele>
        <time>2019-08-23T15:15:25Z</time>
      </trkpt>
      <trkpt lat="48.3447" lon="-0.23079">
        <ele>176</ele>
        <time>2019-08-23T15:15:20Z</time>
      </trkpt>
      <trkpt lat="48.34514" lon="-0.23261">
        <ele>176</ele>
        <time>2019-08-23T15:14:49Z</time>
      </trkpt>
      <trkpt lat="48.3454" lon="-0.23358">
        <ele>176</ele>
        <time>2019-08-23T15:14:33Z</time>
      </trkpt>
      <trkpt lat="48.34615" lon="-0.23525">
        <ele>173</ele>
        <time>2019-08-23T15:14:02Z</time>
      </trkpt>
      <trkpt lat="48.34621" lon="-0.23568">
        <ele>171</ele>
        <time>2019-08-23T15:13:55Z</time>
      </trkpt>
      <trkpt lat="48.34661" lon="-0.2366">
        <ele>170</ele>
        <time>2019-08-23T15:13:38Z</time>
      </trkpt>
      <trkpt lat="48.34639" lon="-0.23688">
        <ele>169</ele>
        <time>2019-08-23T15:13:31Z</time>
      </trkpt>
      <trkpt lat="48.34624" lon="-0.23735">
        <ele>168</ele>
        <time>2019-08-23T15:13:23Z</time>
      </trkpt>
      <trkpt lat="48.34658" lon="-0.23823">
        <ele>170</ele>
        <time>2019-08-23T15:13:07Z</time>
      </trkpt>
      <trkpt lat="48.34678" lon="-0.23901">
        <ele>171</ele>
        <time>2019-08-23T15:12:54Z</time>
      </trkpt>
      <trkpt lat="48.34677" lon="-0.24085">
        <ele>173</ele>
        <time>2019-08-23T15:12:26Z</time>
      </trkpt>
      <trkpt lat="48.34649" lon="-0.241">
        <ele>173</ele>
        <time>2019-08-23T15:12:19Z</time>
      </trkpt>
      <trkpt lat="48.34672" lon="-0.24216">
        <ele>174</ele>
        <time>2019-08-23T15:12:00Z</time>
      </trkpt>
      <trkpt lat="48.34682" lon="-0.24308">
        <ele>176</ele>
        <time>2019-08-23T15:11:46Z</time>
      </trkpt>
    </trkseg>
  </trk>
</gpx>